Time;durP1;ratioP1;P1;durP2;ratioP2;P2;SDS_P1;SDS_P2;PMS_P1;PMS_P2;Temp;Humidity;BMP_temperature;BMP_pressure;BME280_temperature;BME280_humidity;BME280_pressure;Samples;Min_cycle;Max_cycle;Signal;HPM_P1;HPM_P2
2022/05/25 00:01:12;;;;;;;;;4.00;1.00;;;;;;;;5097817;27;47425;-77
2022/05/25 00:03:43;;;;;;;;;1.00;1.00;;;;;;;;5097871;27;45456;-77
2022/05/25 00:06:09;;;;;;;;;1.75;0.75;;;;;;;;5098087;27;45323;-76
2022/05/25 00:08:55;;;;;;;;;4.00;1.00;;;;;;;;5097994;27;45408;-76
2022/05/25 00:11:20;;;;;;;;;3.00;2.00;;;;;;;;5034524;28;47161;-76
2022/05/25 00:13:45;;;;;;;;;3.75;1.00;;;;;;;;5034538;28;45404;-77
2022/05/25 00:16:14;;;;;;;;;0.50;0.50;;;;;;;;5035026;28;45317;-77
2022/05/25 00:19:58;;;;;;;;;2.00;1.00;;;;;;;;5035037;28;45472;-77
2022/05/25 00:21:27;;;;;;;;;4.00;3.00;;;;;;;;5034305;28;46154;-77
2022/05/25 00:23:52;;;;;;;;;1.50;1.50;;;;;;;;5034938;28;45491;-77
2022/05/25 00:26:20;;;;;;;;;1.00;1.00;;;;;;;;5034920;28;45322;-77
2022/05/25 00:28:45;;;;;;;;;0.75;0.75;;;;;;;;5034798;28;45441;-77
2022/05/25 00:31:12;;;;;;;;;1.00;1.00;;;;;;;;5034720;28;45283;-77
2022/05/25 00:33:42;;;;;;;;;5.00;2.00;;;;;;;;5034542;28;45274;-77
2022/05/25 00:36:11;;;;;;;;;1.25;1.25;;;;;;;;5034395;28;45338;-76
2022/05/25 00:38:38;;;;;;;;;1.50;1.00;;;;;;;;5034926;28;45648;-77
2022/05/25 00:41:03;;;;;;;;;2.50;2.00;;;;;;;;5034288;28;46401;-77
2022/05/25 00:43:29;;;;;;;;;2.75;1.00;;;;;;;;5034552;28;45474;-77
2022/05/25 00:45:58;;;;;;;;;2.00;2.00;;;;;;;;5017736;28;45402;-77
2022/05/25 00:48:32;;;;;;;;;4.00;2.00;;;;;;;;5064955;27;45353;-77
2022/05/25 00:51:15;;;;;;;;;2.50;1.25;;;;;;;;5097274;27;45484;-77
2022/05/25 00:53:41;;;;;;;;;3.00;1.25;;;;;;;;5097471;27;45358;-78
2022/05/25 00:56:08;;;;;;;;;2.67;2.67;;;;;;;;5097139;27;45492;-78
2022/05/25 00:58:34;;;;;;;;;3.00;3.00;;;;;;;;5097504;27;45444;-77
2022/05/25 01:01:01;;;;;;;;;2.00;1.50;;;;;;;;5097302;27;47412;-77
2022/05/25 01:03:29;;;;;;;;;1.25;1.25;;;;;;;;5099096;27;45477;-78
2022/05/25 01:06:23;;;;;;;;;3.50;2.00;;;;;;;;5100945;27;45330;-76
2022/05/25 01:08:51;;;;;;;;;2.25;2.25;;;;;;;;5020923;28;45518;-77
2022/05/25 01:11:19;;;;;;;;;1.25;1.25;;;;;;;;5037598;28;45470;-76
2022/05/25 01:13:57;;;;;;;;;3.00;1.75;;;;;;;;5037294;28;45440;-77
2022/05/25 01:16:23;;;;;;;;;1.75;1.75;;;;;;;;5037512;28;45376;-77
2022/05/25 01:19:06;;;;;;;;;3.00;2.00;;;;;;;;5037773;28;45387;-77
2022/05/25 01:21:44;;;;;;;;;1.25;1.25;;;;;;;;5037570;28;46581;-77
2022/05/25 01:24:20;;;;;;;;;1.50;1.50;;;;;;;;5037351;28;45386;-78
2022/05/25 01:26:51;;;;;;;;;2.75;2.75;;;;;;;;5037425;28;45510;-77
2022/05/25 01:29:37;;;;;;;;;1.00;1.00;;;;;;;;5037573;28;45363;-76
2022/05/25 01:32:05;;;;;;;;;3.00;1.50;;;;;;;;5037150;28;46226;-76
2022/05/25 01:34:33;;;;;;;;;2.75;1.00;;;;;;;;5037187;28;45443;-77
2022/05/25 01:37:17;;;;;;;;;3.50;2.00;;;;;;;;5037295;28;45397;-77
2022/05/25 01:39:52;;;;;;;;;3.00;2.00;;;;;;;;5037193;28;45440;-76
2022/05/25 01:42:41;;;;;;;;;1.00;1.00;;;;;;;;5036986;28;46396;-77
2022/05/25 01:45:08;;;;;;;;;2.00;2.00;;;;;;;;5057243;27;45549;-78
2022/05/25 01:47:38;;;;;;;;;6.25;2.00;;;;;;;;5100127;27;45333;-77
2022/05/25 01:50:12;;;;;;;;;2.75;2.75;;;;;;;;5100128;27;45206;-76
2022/05/25 01:52:42;;;;;;;;;1.00;1.00;;;;;;;;5099965;27;45745;-76
2022/05/25 01:55:10;;;;;;;;;1.75;1.75;;;;;;;;5099738;27;45249;-75
2022/05/25 01:57:44;;;;;;;;;2.00;2.00;;;;;;;;5100012;27;45286;-75
2022/05/25 02:00:12;;;;;;;;;5.75;1.00;;;;;;;;5099841;27;45387;-76
2022/05/25 02:05:21;;;;;;;;;6.00;2.00;;;;;;;;5099829;27;45851;-76
2022/05/25 02:08:02;;;;;;;;;1.00;1.00;;;;;;;;5099856;27;45367;-77
2022/05/25 02:10:35;;;;;;;;;2.50;2.50;;;;;;;;5100068;27;45394;-76
2022/05/25 02:13:18;;;;;;;;;4.00;3.00;;;;;;;;5099632;27;47593;-77
2022/05/25 02:15:55;;;;;;;;;2.75;2.00;;;;;;;;5099184;27;45277;-76
2022/05/25 02:18:30;;;;;;;;;2.50;2.25;;;;;;;;5099552;27;45386;-77
2022/05/25 02:21:00;;;;;;;;;3.25;3.00;;;;;;;;5099517;27;45173;-77
2022/05/25 02:23:49;;;;;;;;;2.00;2.00;;;;;;;;5099606;27;45357;-76
2022/05/25 02:26:17;;;;;;;;;4.50;2.00;;;;;;;;5090753;27;45549;-76
2022/05/25 02:28:44;;;;;;;;;2.75;2.75;;;;;;;;5099545;27;45311;-77
2022/05/25 02:31:12;;;;;;;;;4.00;2.00;;;;;;;;5099246;27;45374;-76
2022/05/25 02:33:43;;;;;;;;;7.00;1.50;;;;;;;;5099300;27;47447;-76
2022/05/25 02:36:10;;;;;;;;;2.00;2.00;;;;;;;;5099073;27;45425;-76
2022/05/25 02:38:42;;;;;;;;;3.00;2.00;;;;;;;;5099306;27;45329;-76
2022/05/25 02:41:09;;;;;;;;;4.50;4.25;;;;;;;;5099337;27;45447;-75
2022/05/25 02:43:37;;;;;;;;;2.00;2.00;;;;;;;;5099123;27;45366;-75
2022/05/25 02:46:14;;;;;;;;;3.50;2.00;;;;;;;;5099055;27;45310;-76
2022/05/25 02:48:39;;;;;;;;;2.00;2.00;;;;;;;;5097981;27;45437;-75
2022/05/25 02:51:08;;;;;;;;;2.25;2.00;;;;;;;;5099037;27;45470;-76
2022/05/25 02:53:34;;;;;;;;;4.00;2.00;;;;;;;;5098685;27;46632;-76
2022/05/25 02:56:00;;;;;;;;;3.00;3.00;;;;;;;;5098630;27;45389;-76
2022/05/25 02:58:27;;;;;;;;;2.00;2.00;;;;;;;;5099064;27;45369;-75
2022/05/25 03:00:53;;;;;;;;;3.67;2.00;;;;;;;;5099081;27;45385;-76
2022/05/25 03:03:18;;;;;;;;;3.00;1.75;;;;;;;;5098757;27;46285;-76
2022/05/25 03:05:43;;;;;;;;;3.00;2.00;;;;;;;;5098573;27;45260;-76
2022/05/25 03:08:09;;;;;;;;;1.33;1.33;;;;;;;;5099006;27;45278;-76
2022/05/25 03:10:36;;;;;;;;;4.75;2.00;;;;;;;;5098840;27;45341;-76
2022/05/25 03:13:04;;;;;;;;;3.75;2.00;;;;;;;;5098716;27;46535;-76
2022/05/25 03:15:34;;;;;;;;;2.00;1.00;;;;;;;;5099619;27;45308;-76
2022/05/25 03:18:05;;;;;;;;;4.50;2.00;;;;;;;;5098647;27;45367;-76
2022/05/25 03:20:30;;;;;;;;;4.50;2.00;;;;;;;;5099047;27;45363;-76
2022/05/25 03:22:56;;;;;;;;;5.75;2.00;;;;;;;;5098480;27;45374;-76
2022/05/25 03:25:23;;;;;;;;;2.00;0.75;;;;;;;;5098111;27;45477;-75
2022/05/25 03:27:51;;;;;;;;;4.50;2.50;;;;;;;;5098798;27;45378;-75
2022/05/25 03:30:19;;;;;;;;;3.75;2.00;;;;;;;;5098738;27;45301;-76
2022/05/25 03:32:44;;;;;;;;;2.50;2.50;;;;;;;;5098173;27;47440;-76
2022/05/25 03:35:13;;;;;;;;;2.00;2.00;;;;;;;;5098399;27;45240;-76
2022/05/25 03:37:40;;;;;;;;;4.00;2.50;;;;;;;;5098363;27;45346;-76
2022/05/25 03:40:09;;;;;;;;;2.75;2.75;;;;;;;;5098585;27;45231;-76
2022/05/25 03:42:35;;;;;;;;;1.50;1.00;;;;;;;;5098311;27;45378;-75
2022/05/25 03:45:04;;;;;;;;;3.00;3.00;;;;;;;;5097917;27;45412;-76
2022/05/25 03:47:29;;;;;;;;;2.00;2.00;;;;;;;;5098250;27;45385;-76
2022/05/25 03:49:55;;;;;;;;;1.75;1.00;;;;;;;;5098504;27;45374;-76
2022/05/25 03:52:21;;;;;;;;;3.50;2.25;;;;;;;;5097861;27;46446;-76
2022/05/25 03:54:46;;;;;;;;;5.00;1.75;;;;;;;;5097960;27;45282;-76
2022/05/25 03:57:11;;;;;;;;;3.50;2.75;;;;;;;;5098047;27;45417;-76
2022/05/25 03:59:37;;;;;;;;;3.33;3.33;;;;;;;;5098069;27;45239;-75
2022/05/25 04:02:02;;;;;;;;;1.00;1.00;;;;;;;;5097650;27;45360;-75
2022/05/25 04:04:27;;;;;;;;;4.00;2.00;;;;;;;;5097785;27;45244;-75
2022/05/25 04:06:52;;;;;;;;;2.25;2.00;;;;;;;;5098259;27;45263;-76
2022/05/25 04:09:17;;;;;;;;;3.33;3.00;;;;;;;;5098072;27;45462;-76
2022/05/25 04:11:43;;;;;;;;;2.67;2.67;;;;;;;;5097769;27;46444;-76
2022/05/25 04:14:08;;;;;;;;;2.75;2.75;;;;;;;;5097835;27;45239;-75
2022/05/25 04:16:34;;;;;;;;;3.50;2.25;;;;;;;;5097462;27;45532;-76
2022/05/25 04:19:00;;;;;;;;;2.00;2.00;;;;;;;;5097985;27;45304;-76
2022/05/25 04:21:25;;;;;;;;;2.50;2.50;;;;;;;;5097531;27;47311;-76
2022/05/25 04:23:50;;;;;;;;;2.50;2.50;;;;;;;;5097743;27;45737;-75
2022/05/25 04:26:15;;;;;;;;;1.75;1.75;;;;;;;;5097886;27;45294;-76
2022/05/25 04:28:40;;;;;;;;;2.75;1.75;;;;;;;;5098014;27;45314;-76
2022/05/25 04:31:06;;;;;;;;;2.00;2.00;;;;;;;;5097574;27;45445;-75
2022/05/25 04:33:31;;;;;;;;;2.75;2.00;;;;;;;;5097539;27;45324;-75
2022/05/25 04:35:57;;;;;;;;;3.25;2.00;;;;;;;;5097674;27;45325;-75
2022/05/25 04:38:22;;;;;;;;;2.00;2.00;;;;;;;;5099709;27;45336;-75
2022/05/25 04:40:47;;;;;;;;;2.75;2.00;;;;;;;;5100991;27;45583;-76
2022/05/25 04:43:19;;;;;;;;;2.25;2.00;;;;;;;;5101076;27;45417;-75
2022/05/25 04:45:45;;;;;;;;;2.67;2.67;;;;;;;;5100954;27;45342;-76
2022/05/25 04:48:13;;;;;;;;;5.33;4.00;;;;;;;;5101337;27;45403;-76
2022/05/25 04:50:40;;;;;;;;;17.00;17.00;;;;;;;;5100796;27;46550;-75
2022/05/25 04:53:06;;;;;;;;;2.25;1.25;;;;;;;;5100896;27;45178;-75
2022/05/25 04:58:18;;;;;;;;;1.67;1.00;;;;;;;;5101257;27;45326;-76
2022/05/25 05:00:44;;;;;;;;;2.00;2.00;;;;;;;;5100314;27;46113;-75
2022/05/25 05:03:09;;;;;;;;;4.00;2.00;;;;;;;;5100813;27;45344;-74
2022/05/25 05:05:34;;;;;;;;;5.67;2.33;;;;;;;;5100981;27;45333;-75
2022/05/25 05:07:59;;;;;;;;;2.33;2.33;;;;;;;;5100923;27;45348;-75
2022/05/25 05:10:25;;;;;;;;;2.67;2.67;;;;;;;;5100839;27;45590;-75
2022/05/25 05:12:50;;;;;;;;;2.00;2.00;;;;;;;;5100607;27;45441;-75
2022/05/25 05:15:15;;;;;;;;;6.00;3.00;;;;;;;;5100459;27;45484;-75
2022/05/25 05:17:40;;;;;;;;;4.00;3.00;;;;;;;;5100918;27;45315;-75
2022/05/25 05:20:06;;;;;;;;;2.25;2.25;;;;;;;;5100253;27;45441;-76
2022/05/25 05:22:31;;;;;;;;;1.33;1.33;;;;;;;;5100379;27;45299;-75
2022/05/25 05:24:57;;;;;;;;;2.50;2.25;;;;;;;;5100495;27;45319;-76
2022/05/25 05:27:22;;;;;;;;;3.50;1.75;;;;;;;;5100769;27;45295;-75
2022/05/25 05:29:48;;;;;;;;;1.00;1.00;;;;;;;;5100115;27;46293;-75
2022/05/25 05:32:13;;;;;;;;;2.00;2.00;;;;;;;;5100088;27;45319;-75
2022/05/25 05:34:39;;;;;;;;;3.25;2.50;;;;;;;;5100513;27;45505;-75
2022/05/25 05:37:06;;;;;;;;;2.50;1.75;;;;;;;;5100389;27;45366;-76
2022/05/25 05:39:34;;;;;;;;;4.00;2.50;;;;;;;;5100389;27;46328;-75
2022/05/25 05:42:03;;;;;;;;;3.33;2.00;;;;;;;;5100013;27;45579;-75
2022/05/25 05:44:32;;;;;;;;;4.00;2.33;;;;;;;;5100015;27;45508;-75
2022/05/25 05:46:58;;;;;;;;;2.25;2.00;;;;;;;;5100224;27;45378;-76
2022/05/25 05:49:23;;;;;;;;;2.00;2.00;;;;;;;;5099207;27;46463;-75
2022/05/25 05:51:48;;;;;;;;;3.50;3.00;;;;;;;;5100002;27;45267;-75
2022/05/25 05:54:14;;;;;;;;;2.33;2.33;;;;;;;;5100095;27;45832;-76
2022/05/25 05:56:40;;;;;;;;;5.67;5.67;;;;;;;;5099960;27;45343;-76
2022/05/25 05:59:05;;;;;;;;;4.25;4.00;;;;;;;;5099562;27;46457;-75
2022/05/25 06:01:30;;;;;;;;;6.00;5.00;;;;;;;;5099650;27;45308;-76
2022/05/25 06:03:55;;;;;;;;;2.25;2.00;;;;;;;;5099629;27;45330;-75
2022/05/25 06:06:23;;;;;;;;;2.00;2.00;;;;;;;;5100041;27;45299;-76
2022/05/25 06:08:48;;;;;;;;;1.75;1.75;;;;;;;;5099621;27;46192;-76
2022/05/25 06:11:14;;;;;;;;;3.25;2.00;;;;;;;;5099757;27;45433;-76
2022/05/25 06:13:40;;;;;;;;;5.67;4.00;;;;;;;;5099873;27;45322;-76
2022/05/25 06:21:33;;;;;;;;;4.00;3.00;;;;;;;;5099534;27;45394;-76
2022/05/25 06:23:58;;;;;;;;;4.67;2.33;;;;;;;;5099333;27;45341;-75
2022/05/25 06:26:27;;;;;;;;;4.00;2.00;;;;;;;;5099694;27;45430;-76
2022/05/25 06:28:52;;;;;;;;;3.00;3.00;;;;;;;;5099542;27;47405;-76
2022/05/25 06:31:17;;;;;;;;;6.67;3.00;;;;;;;;5099200;27;45465;-76
2022/05/25 06:33:43;;;;;;;;;3.25;3.25;;;;;;;;5099634;27;45291;-76
2022/05/25 06:36:23;;;;;;;;;4.67;3.00;;;;;;;;5099517;27;45265;-76
2022/05/25 06:38:48;;;;;;;;;5.67;4.00;;;;;;;;5099116;27;46250;-76
2022/05/25 06:41:14;;;;;;;;;6.00;3.33;;;;;;;;5099073;27;45459;-77
2022/05/25 06:43:39;;;;;;;;;3.00;3.00;;;;;;;;5099528;27;45319;-76
2022/05/25 06:46:06;;;;;;;;;7.00;5.67;;;;;;;;5099383;27;45189;-76
2022/05/25 06:48:31;;;;;;;;;2.00;2.00;;;;;;;;5098981;27;45589;-76
2022/05/25 06:50:56;;;;;;;;;6.67;6.00;;;;;;;;5098998;27;45437;-76
2022/05/25 06:53:21;;;;;;;;;5.00;5.00;;;;;;;;5099257;27;45275;-76
2022/05/25 06:55:47;;;;;;;;;6.33;5.00;;;;;;;;5099205;27;45226;-76
2022/05/25 06:58:12;;;;;;;;;5.75;3.00;;;;;;;;5098701;27;46413;-76
2022/05/25 07:00:37;;;;;;;;;5.00;3.33;;;;;;;;5098096;27;45292;-76
2022/05/25 07:03:03;;;;;;;;;4.00;3.00;;;;;;;;5098949;27;45471;-76
2022/05/25 07:05:29;;;;;;;;;4.75;3.25;;;;;;;;5099045;27;45327;-76
2022/05/25 07:07:54;;;;;;;;;2.75;2.75;;;;;;;;5098673;27;45342;-77
2022/05/25 07:10:19;;;;;;;;;0.25;0.00;;;;;;;;5098942;27;45472;-76
2022/05/25 07:12:44;;;;;;;;;3.25;1.50;;;;;;;;5099009;27;45385;-76
2022/05/25 07:15:10;;;;;;;;;7.33;3.00;;;;;;;;5098997;27;45260;-75
2022/05/25 07:17:35;;;;;;;;;4.00;3.00;;;;;;;;5098641;27;45615;-76
2022/05/25 07:20:01;;;;;;;;;2.75;2.75;;;;;;;;5098435;27;45406;-75
2022/05/25 07:22:26;;;;;;;;;3.33;3.00;;;;;;;;5098533;27;45381;-76
2022/05/25 07:24:52;;;;;;;;;2.33;2.33;;;;;;;;5098946;27;45374;-76
2022/05/25 07:27:17;;;;;;;;;3.67;3.67;;;;;;;;5098259;27;46592;-75
2022/05/25 07:29:42;;;;;;;;;5.25;3.00;;;;;;;;5098581;27;45290;-76
2022/05/25 07:32:09;;;;;;;;;5.25;2.75;;;;;;;;5098385;27;45473;-76
2022/05/25 07:34:39;;;;;;;;;3.00;3.00;;;;;;;;5098690;27;45440;-76
2022/05/25 07:37:10;;;;;;;;;4.00;3.00;;;;;;;;5098047;27;46564;-76
2022/05/25 07:39:39;;;;;;;;;5.33;4.00;;;;;;;;5096827;27;45271;-76
2022/05/25 07:42:05;;;;;;;;;4.50;2.75;;;;;;;;5098399;27;45283;-76
2022/05/25 07:44:33;;;;;;;;;5.25;2.75;;;;;;;;5098529;27;45687;-76
2022/05/25 07:46:58;;;;;;;;;3.00;2.00;;;;;;;;5097872;27;46257;-75
2022/05/25 07:49:23;;;;;;;;;2.75;2.00;;;;;;;;5097914;27;45284;-76
2022/05/25 07:51:49;;;;;;;;;3.00;3.00;;;;;;;;5098190;27;45358;-76
2022/05/25 07:54:15;;;;;;;;;7.33;4.00;;;;;;;;5098321;27;45348;-75
2022/05/25 07:56:40;;;;;;;;;4.33;2.33;;;;;;;;5097963;27;45436;-75
2022/05/25 07:59:07;;;;;;;;;6.33;3.00;;;;;;;;5098012;27;45402;-75
2022/05/25 08:07:05;;;;;;;;;3.75;3.75;;;;;;;;5098034;27;45693;-76
2022/05/25 08:09:31;;;;;;;;;2.50;2.25;;;;;;;;5097651;27;45452;-76
2022/05/25 08:11:57;;;;;;;;;0.50;0.50;;;;;;;;5099441;27;45302;-76
2022/05/25 08:14:25;;;;;;;;;2.75;2.00;;;;;;;;5101879;27;45801;-75
2022/05/25 08:16:50;;;;;;;;;2.00;2.00;;;;;;;;5101105;27;47356;-76
2022/05/25 08:19:15;;;;;;;;;3.00;3.00;;;;;;;;5101549;27;45330;-74
2022/05/25 08:21:41;;;;;;;;;2.25;2.00;;;;;;;;5101772;27;45369;-75
2022/05/25 08:24:06;;;;;;;;;1.75;1.00;;;;;;;;5101714;27;45207;-75
2022/05/25 08:26:31;;;;;;;;;1.00;1.00;;;;;;;;5101418;27;46066;-74
2022/05/25 08:28:56;;;;;;;;;2.00;2.00;;;;;;;;5101141;27;45382;-75
2022/05/25 08:31:22;;;;;;;;;2.33;1.00;;;;;;;;5101228;27;45386;-76
2022/05/25 08:33:47;;;;;;;;;5.33;2.67;;;;;;;;5101467;27;45326;-75
2022/05/25 08:36:12;;;;;;;;;3.00;1.00;;;;;;;;5101007;27;46287;-76
2022/05/25 08:38:37;;;;;;;;;3.00;1.00;;;;;;;;5101427;27;45385;-75
2022/05/25 08:41:03;;;;;;;;;1.25;1.00;;;;;;;;5101115;27;45284;-75
2022/05/25 08:43:40;;;;;;;;;1.00;1.00;;;;;;;;5101572;27;45263;-76
2022/05/25 08:46:06;;;;;;;;;5.75;1.50;;;;;;;;5101176;27;46609;-75
2022/05/25 08:48:32;;;;;;;;;3.50;0.00;;;;;;;;5100754;27;45299;-75
2022/05/25 08:51:01;;;;;;;;;2.00;2.00;;;;;;;;5101129;27;45343;-75
2022/05/25 08:53:26;;;;;;;;;1.00;0.50;;;;;;;;5101496;27;45410;-75
2022/05/25 08:55:56;;;;;;;;;2.33;2.33;;;;;;;;5100552;27;45713;-75
2022/05/25 08:58:23;;;;;;;;;0.75;0.75;;;;;;;;5101025;27;45317;-76
2022/05/25 09:00:51;;;;;;;;;2.00;1.00;;;;;;;;5100759;27;45310;-75
2022/05/25 09:03:22;;;;;;;;;1.00;0.00;;;;;;;;5100912;27;45487;-76
2022/05/25 09:05:55;;;;;;;;;1.00;1.00;;;;;;;;5100818;27;46156;-76
2022/05/25 09:08:26;;;;;;;;;3.00;1.00;;;;;;;;5100520;27;45485;-76
2022/05/25 09:10:55;;;;;;;;;2.50;1.00;;;;;;;;5100663;27;45719;-75
2022/05/25 09:13:26;;;;;;;;;2.50;1.00;;;;;;;;5101168;27;45419;-75
2022/05/25 09:18:41;;;;;;;;;2.67;2.00;;;;;;;;5100227;27;45429;-76
2022/05/25 09:21:07;;;;;;;;;0.00;0.00;;;;;;;;5100611;27;45354;-75
2022/05/25 09:23:33;;;;;;;;;1.25;1.00;;;;;;;;5100166;27;45327;-75
2022/05/25 09:25:58;;;;;;;;;1.00;1.00;;;;;;;;5100321;27;45420;-75
2022/05/25 09:28:29;;;;;;;;;4.33;3.00;;;;;;;;5100245;27;45358;-75
2022/05/25 09:30:56;;;;;;;;;1.00;1.00;;;;;;;;5100713;27;45407;-75
2022/05/25 09:33:31;;;;;;;;;2.00;1.00;;;;;;;;5100439;27;45353;-75
2022/05/25 09:36:02;;;;;;;;;2.00;0.67;;;;;;;;5100138;27;45671;-75
2022/05/25 09:38:40;;;;;;;;;1.00;1.00;;;;;;;;5100254;27;45827;-75
2022/05/25 09:41:08;;;;;;;;;1.00;0.00;;;;;;;;5100326;27;45309;-75
2022/05/25 09:43:34;;;;;;;;;0.67;0.67;;;;;;;;5100057;27;45358;-75
2022/05/25 09:46:05;;;;;;;;;1.00;0.00;;;;;;;;5100185;27;46509;-74
2022/05/25 09:48:31;;;;;;;;;0.67;0.67;;;;;;;;5099844;27;45386;-75
2022/05/25 09:51:02;;;;;;;;;2.00;0.50;;;;;;;;5100091;27;45356;-74
2022/05/25 09:53:35;;;;;;;;;1.00;0.00;;;;;;;;5100532;27;45256;-75
2022/05/25 09:56:06;;;;;;;;;0.00;0.00;;;;;;;;5099623;27;46152;-74
2022/05/25 09:58:35;;;;;;;;;3.33;0.00;;;;;;;;5099782;27;45326;-75
2022/05/25 10:01:16;;;;;;;;;1.00;1.00;;;;;;;;5100188;27;45346;-74
2022/05/25 10:03:42;;;;;;;;;0.00;0.00;;;;;;;;5100117;27;45470;-75
2022/05/25 10:06:38;;;;;;;;;1.00;0.00;;;;;;;;5099807;27;45532;-74
2022/05/25 10:09:23;;;;;;;;;0.33;0.00;;;;;;;;5036425;28;45337;-75
2022/05/25 10:11:51;;;;;;;;;0.67;0.33;;;;;;;;5036730;28;45429;-75
2022/05/25 10:14:29;;;;;;;;;0.67;0.00;;;;;;;;5036901;28;45504;-75
2022/05/25 10:16:56;;;;;;;;;0.00;0.00;;;;;;;;5036287;28;45737;-75
2022/05/25 10:19:21;;;;;;;;;2.00;0.00;;;;;;;;5036736;28;45531;-75
2022/05/25 10:21:49;;;;;;;;;0.00;0.00;;;;;;;;5036774;28;45476;-75
2022/05/25 10:24:21;;;;;;;;;0.00;0.00;;;;;;;;5036884;28;45544;-75
2022/05/25 10:26:49;;;;;;;;;2.33;1.33;;;;;;;;5036231;28;46402;-75
2022/05/25 10:36:45;;;;;;;;;0.67;0.00;;;;;;;;5036269;28;45448;-74
2022/05/25 10:37:51;;;;;;;;;3.00;1.50;;;;;;;;5035629;28;45599;-75
2022/05/25 10:40:20;;;;;;;;;0.00;0.00;;;;;;;;5018707;28;45408;-75
2022/05/25 10:42:46;;;;;;;;;0.00;0.00;;;;;;;;5036657;28;45494;-75
2022/05/25 10:45:11;;;;;;;;;0.33;0.33;;;;;;;;5060816;27;45448;-75
2022/05/25 10:47:55;;;;;;;;;12.00;10.67;;;;;;;;5099534;27;45783;-75
2022/05/25 10:50:20;;;;;;;;;0.00;0.00;;;;;;;;5078844;27;45382;-75
2022/05/25 10:52:48;;;;;;;;;1.00;1.00;;;;;;;;5083258;27;45424;-75
2022/05/25 10:55:14;;;;;;;;;4.00;2.67;;;;;;;;5099097;27;45398;-75
2022/05/25 10:57:51;;;;;;;;;4.00;4.00;;;;;;;;5098817;27;45432;-75
2022/05/25 11:00:26;;;;;;;;;5.00;4.00;;;;;;;;5078536;28;45370;-76
2022/05/25 11:02:51;;;;;;;;;0.67;0.00;;;;;;;;5084296;27;45174;-75
2022/05/25 11:05:23;;;;;;;;;3.00;2.00;;;;;;;;5098925;27;45572;-75
2022/05/25 11:07:50;;;;;;;;;2.00;2.00;;;;;;;;5098527;27;46295;-76
2022/05/25 11:10:24;;;;;;;;;4.67;4.00;;;;;;;;5092875;27;45322;-71
2022/05/25 11:13:04;;;;;;;;;4.00;2.33;;;;;;;;5106258;27;45328;-70
2022/05/25 11:15:41;;;;;;;;;2.00;2.00;;;;;;;;5094403;27;45393;-75
2022/05/25 11:18:06;;;;;;;;;6.00;2.33;;;;;;;;5118948;27;46486;-76
2022/05/25 11:20:31;;;;;;;;;0.33;0.33;;;;;;;;5115358;27;45442;-73
2022/05/25 11:23:02;;;;;;;;;3.33;2.00;;;;;;;;5098894;27;45678;-76
2022/05/25 11:25:30;;;;;;;;;1.00;1.00;;;;;;;;5098821;27;45446;-72
2022/05/25 11:27:55;;;;;;;;;3.00;1.00;;;;;;;;5098143;27;46525;-73
2022/05/25 11:30:33;;;;;;;;;5.00;4.67;;;;;;;;5102221;27;45367;-73
2022/05/25 11:33:10;;;;;;;;;1.33;1.33;;;;;;;;5099088;27;45327;-71
2022/05/25 11:35:54;;;;;;;;;2.00;1.33;;;;;;;;5103017;27;45465;-69
2022/05/25 11:38:22;;;;;;;;;0.00;0.00;;;;;;;;5108051;27;46649;-80
2022/05/25 11:41:05;;;;;;;;;2.33;1.67;;;;;;;;5098187;27;45327;-80
2022/05/25 11:43:39;;;;;;;;;0.00;0.00;;;;;;;;5097079;27;45337;-80
2022/05/25 11:46:30;;;;;;;;;5.33;2.00;;;;;;;;5097922;27;45467;-76
2022/05/25 11:48:58;;;;;;;;;6.67;3.33;;;;;;;;5098606;27;47284;-78
2022/05/25 11:51:28;;;;;;;;;0.33;0.33;;;;;;;;5102461;27;45870;-85
2022/05/25 11:54:01;;;;;;;;;4.67;2.00;;;;;;;;5105673;27;45452;-75
2022/05/25 11:56:46;;;;;;;;;2.00;1.00;;;;;;;;5098514;27;45292;-75
2022/05/25 11:59:13;;;;;;;;;2.00;1.33;;;;;;;;5088617;27;45370;-73
2022/05/25 12:01:53;;;;;;;;;1.00;1.00;;;;;;;;5097819;27;45211;-73
2022/05/25 12:04:37;;;;;;;;;2.00;1.00;;;;;;;;5112860;27;45351;-80
2022/05/25 12:07:09;;;;;;;;;0.00;0.00;;;;;;;;5118732;27;45256;-74
2022/05/25 12:09:43;;;;;;;;;4.00;0.00;;;;;;;;5115052;27;45314;-75
2022/05/25 12:12:09;;;;;;;;;2.00;0.00;;;;;;;;5090800;27;45480;-74
2022/05/25 12:14:36;;;;;;;;;1.33;1.00;;;;;;;;5095760;27;45322;-75
2022/05/25 12:17:19;;;;;;;;;2.00;2.00;;;;;;;;5118486;27;45347;-74
2022/05/25 12:19:45;;;;;;;;;1.67;1.00;;;;;;;;5118102;27;46580;-74
2022/05/25 12:22:15;;;;;;;;;1.00;1.00;;;;;;;;5118107;27;45279;-74
2022/05/25 12:24:42;;;;;;;;;1.00;1.00;;;;;;;;5118452;27;45260;-74
2022/05/25 12:27:10;;;;;;;;;20.00;16.67;;;;;;;;5118434;27;45382;-74
2022/05/25 12:29:43;;;;;;;;;0.67;0.67;;;;;;;;5117882;27;46007;-74
2022/05/25 12:32:09;;;;;;;;;0.67;0.67;;;;;;;;5118101;27;45418;-74
2022/05/25 12:34:37;;;;;;;;;6.00;4.67;;;;;;;;5116699;27;45943;-74
2022/05/25 12:37:03;;;;;;;;;3.67;1.00;;;;;;;;5118290;27;45333;-74
2022/05/25 12:39:47;;;;;;;;;0.67;0.00;;;;;;;;5118094;27;46443;-74
2022/05/25 12:42:24;;;;;;;;;4.00;1.00;;;;;;;;5117775;27;45294;-75
2022/05/25 12:50:50;;;;;;;;;1.00;1.00;;;;;;;;5117513;27;45298;-74
2022/05/25 12:53:20;;;;;;;;;0.00;0.00;;;;;;;;5117802;27;45278;-74
2022/05/25 12:55:56;;;;;;;;;0.00;0.00;;;;;;;;5117568;27;45373;-74
2022/05/25 12:58:37;;;;;;;;;0.00;0.00;;;;;;;;5118633;27;45552;-74
2022/05/25 13:01:06;;;;;;;;;0.75;0.00;;;;;;;;5121317;27;46429;-74
2022/05/25 13:03:37;;;;;;;;;1.00;0.33;;;;;;;;5121045;27;45342;-74
2022/05/25 13:06:05;;;;;;;;;2.33;0.00;;;;;;;;5121053;27;45287;-74
2022/05/25 13:08:45;;;;;;;;;3.00;1.00;;;;;;;;5121724;27;45252;-74
2022/05/25 13:11:28;;;;;;;;;0.00;0.00;;;;;;;;5121150;27;45570;-74
2022/05/25 13:13:56;;;;;;;;;1.00;1.00;;;;;;;;5120999;27;45337;-74
2022/05/25 13:16:40;;;;;;;;;0.67;0.00;;;;;;;;5121105;27;45444;-75
2022/05/25 13:19:26;;;;;;;;;2.00;2.00;;;;;;;;5121355;27;45323;-74
2022/05/25 13:22:02;;;;;;;;;1.00;0.00;;;;;;;;5120832;27;46388;-75
2022/05/25 13:24:46;;;;;;;;;0.00;0.00;;;;;;;;5120870;27;45178;-74
2022/05/25 13:27:16;;;;;;;;;0.67;0.67;;;;;;;;5120954;27;45313;-74
2022/05/25 13:29:48;;;;;;;;;1.00;0.00;;;;;;;;5121099;27;45428;-75
2022/05/25 13:32:20;;;;;;;;;0.00;0.00;;;;;;;;5120859;27;45314;-74
2022/05/25 13:34:45;;;;;;;;;0.00;0.00;;;;;;;;5120991;27;45369;-75
2022/05/25 13:37:14;;;;;;;;;0.00;0.00;;;;;;;;5120882;27;45384;-73
2022/05/25 13:39:40;;;;;;;;;0.00;0.00;;;;;;;;5121122;27;45307;-74
2022/05/25 13:42:12;;;;;;;;;0.00;0.00;;;;;;;;5120838;27;45373;-74
2022/05/25 13:44:48;;;;;;;;;1.00;0.00;;;;;;;;5120668;27;45370;-74
2022/05/25 13:47:18;;;;;;;;;3.00;1.00;;;;;;;;5120537;27;45291;-74
2022/05/25 13:49:46;;;;;;;;;0.00;0.00;;;;;;;;5120711;27;45261;-75
2022/05/25 13:52:11;;;;;;;;;0.33;0.00;;;;;;;;5120384;27;47379;-74
2022/05/25 13:54:39;;;;;;;;;0.00;0.00;;;;;;;;5120343;27;45235;-74
2022/05/25 13:57:07;;;;;;;;;0.00;0.00;;;;;;;;5120799;27;45311;-74
2022/05/25 13:59:34;;;;;;;;;0.00;0.00;;;;;;;;5120564;27;45409;-74
2022/05/25 14:02:11;;;;;;;;;1.00;0.00;;;;;;;;5120254;27;46114;-74
2022/05/25 14:04:37;;;;;;;;;0.00;0.00;;;;;;;;5120431;27;45389;-74
2022/05/25 14:07:02;;;;;;;;;0.00;0.00;;;;;;;;5120337;27;45250;-74
2022/05/25 14:12:14;;;;;;;;;0.00;0.00;;;;;;;;5120088;27;45298;-74
2022/05/25 14:14:47;;;;;;;;;0.00;0.00;;;;;;;;5113750;27;45441;-74
2022/05/25 14:17:25;;;;;;;;;0.00;0.00;;;;;;;;5103332;27;45371;-75
2022/05/25 14:19:52;;;;;;;;;0.00;0.00;;;;;;;;5118526;27;45467;-74
2022/05/25 14:22:21;;;;;;;;;0.00;0.00;;;;;;;;5120081;27;45426;-74
2022/05/25 14:24:51;;;;;;;;;0.00;0.00;;;;;;;;5120023;27;45242;-73
2022/05/25 14:27:31;;;;;;;;;1.00;0.00;;;;;;;;5102466;27;45718;-74
2022/05/25 14:30:04;;;;;;;;;0.00;0.00;;;;;;;;5098947;27;45428;-74
2022/05/25 14:32:33;;;;;;;;;1.67;0.00;;;;;;;;5098624;27;46641;-74
2022/05/25 14:35:00;;;;;;;;;2.00;1.00;;;;;;;;5109604;27;45532;-74
2022/05/25 14:37:33;;;;;;;;;0.00;0.00;;;;;;;;5112709;27;45426;-73
2022/05/25 14:40:00;;;;;;;;;1.00;1.00;;;;;;;;5119628;27;45448;-73
2022/05/25 14:42:28;;;;;;;;;1.00;0.00;;;;;;;;5108476;27;45365;-73
2022/05/25 14:45:09;;;;;;;;;0.00;0.00;;;;;;;;5098669;27;45423;-74
2022/05/25 14:47:37;;;;;;;;;0.00;0.00;;;;;;;;5098800;27;45330;-73
2022/05/25 14:50:11;;;;;;;;;0.00;0.00;;;;;;;;5098696;27;45421;-73
2022/05/25 14:52:43;;;;;;;;;1.25;0.00;;;;;;;;5098320;27;45485;-73
2022/05/25 14:55:26;;;;;;;;;0.00;0.00;;;;;;;;5098454;27;45445;-73
2022/05/25 14:58:21;;;;;;;;;0.00;0.00;;;;;;;;5115078;27;45448;-73
2022/05/25 15:00:58;;;;;;;;;0.00;0.00;;;;;;;;5055819;28;45459;-72
2022/05/25 15:03:37;;;;;;;;;0.00;0.00;;;;;;;;5052957;28;45608;-73
2022/05/25 15:06:13;;;;;;;;;0.00;0.00;;;;;;;;5033163;28;45617;-73
2022/05/25 15:08:59;;;;;;;;;2.00;1.00;;;;;;;;5052060;28;45462;-73
2022/05/25 15:11:35;;;;;;;;;0.67;0.67;;;;;;;;4975680;28;45500;-73
2022/05/25 15:19:39;;;;;;;;;1.67;0.00;;;;;;;;4975698;28;45400;-73
2022/05/25 15:22:05;;;;;;;;;0.00;0.00;;;;;;;;4975303;28;45469;-73
2022/05/25 15:24:30;;;;;;;;;1.25;0.00;;;;;;;;4973885;28;46513;-73
2022/05/25 15:26:56;;;;;;;;;0.00;0.00;;;;;;;;4975759;28;45415;-73
2022/05/25 15:29:32;;;;;;;;;0.00;0.00;;;;;;;;4974406;28;45340;-73
2022/05/25 15:31:58;;;;;;;;;0.00;0.00;;;;;;;;4968918;28;45429;-72
2022/05/25 15:34:25;;;;;;;;;2.00;0.00;;;;;;;;4965225;28;46254;-73
2022/05/25 15:36:51;;;;;;;;;0.75;0.00;;;;;;;;4996950;28;45530;-74